sensor_id;sensor_type;location;lat;lon;timestamp;pressure;altitude;pressure_sealevel;temperature;humidity
32456;BME280;18912;43.270;27.942;2022-10-26T00:02:21;98303.13;;;19.55;57.64
32456;BME280;18912;43.270;27.942;2022-10-26T00:04:46;98294.38;;;19.58;57.60
32456;BME280;18912;43.270;27.942;2022-10-26T00:07:12;98295.88;;;19.44;58.34
32456;BME280;18912;43.270;27.942;2022-10-26T00:09:37;98299.16;;;19.41;58.26
32456;BME280;18912;43.270;27.942;2022-10-26T00:12:03;98298.50;;;19.34;58.53
32456;BME280;18912;43.270;27.942;2022-10-26T00:14:28;98301.25;;;19.34;58.58
32456;BME280;18912;43.270;27.942;2022-10-26T00:16:54;98302.50;;;19.26;58.89
32456;BME280;18912;43.270;27.942;2022-10-26T00:19:20;98308.78;;;19.22;59.35
32456;BME280;18912;43.270;27.942;2022-10-26T00:21:46;98302.16;;;19.18;59.56
32456;BME280;18912;43.270;27.942;2022-10-26T00:24:11;98315.13;;;19.01;60.12
32456;BME280;18912;43.270;27.942;2022-10-26T00:26:38;98322.25;;;19.02;60.20
32456;BME280;18912;43.270;27.942;2022-10-26T00:29:05;98320.56;;;18.96;60.44
32456;BME280;18912;43.270;27.942;2022-10-26T00:31:31;98321.03;;;18.93;60.15
32456;BME280;18912;43.270;27.942;2022-10-26T00:33:57;98322.19;;;18.97;59.99
32456;BME280;18912;43.270;27.942;2022-10-26T00:36:24;98320.72;;;18.89;60.35
32456;BME280;18912;43.270;27.942;2022-10-26T00:38:51;98324.81;;;18.87;60.43
32456;BME280;18912;43.270;27.942;2022-10-26T00:41:25;98323.06;;;18.81;60.65
32456;BME280;18912;43.270;27.942;2022-10-26T00:43:52;98320.53;;;18.74;60.76
32456;BME280;18912;43.270;27.942;2022-10-26T00:46:21;98312.75;;;18.66;61.26
32456;BME280;18912;43.270;27.942;2022-10-26T00:48:55;98310.97;;;18.55;61.84
32456;BME280;18912;43.270;27.942;2022-10-26T00:51:30;98306.25;;;18.50;61.73
32456;BME280;18912;43.270;27.942;2022-10-26T00:54:02;98316.28;;;18.61;61.34
32456;BME280;18912;43.270;27.942;2022-10-26T00:56:29;98315.69;;;18.59;61.30
32456;BME280;18912;43.270;27.942;2022-10-26T00:59:01;98318.34;;;18.54;61.64
32456;BME280;18912;43.270;27.942;2022-10-26T01:01:28;98316.19;;;18.56;61.43
32456;BME280;18912;43.270;27.942;2022-10-26T01:03:56;98329.50;;;18.48;61.86
32456;BME280;18912;43.270;27.942;2022-10-26T01:06:22;98325.88;;;18.42;61.96
32456;BME280;18912;43.270;27.942;2022-10-26T01:08:48;98323.00;;;18.37;62.32
32456;BME280;18912;43.270;27.942;2022-10-26T01:11:14;98321.03;;;18.33;62.20
32456;BME280;18912;43.270;27.942;2022-10-26T01:13:41;98334.63;;;18.28;62.68
32456;BME280;18912;43.270;27.942;2022-10-26T01:21:42;98329.91;;;18.07;63.63
32456;BME280;18912;43.270;27.942;2022-10-26T01:35:18;98329.44;;;17.93;64.78
32456;BME280;18912;43.270;27.942;2022-10-26T01:37:56;98332.16;;;17.93;64.84
32456;BME280;18912;43.270;27.942;2022-10-26T01:40:28;98331.84;;;17.90;64.97
32456;BME280;18912;43.270;27.942;2022-10-26T01:42:56;98335.34;;;17.85;64.98
32456;BME280;18912;43.270;27.942;2022-10-26T01:45:23;98343.09;;;17.77;65.67
32456;BME280;18912;43.270;27.942;2022-10-26T01:47:51;98342.69;;;17.68;65.96
32456;BME280;18912;43.270;27.942;2022-10-26T01:50:18;98335.31;;;17.68;65.95
32456;BME280;18912;43.270;27.942;2022-10-26T01:52:48;98334.38;;;17.63;66.47
32456;BME280;18912;43.270;27.942;2022-10-26T02:03:49;98323.50;;;17.51;67.47
32456;BME280;18912;43.270;27.942;2022-10-26T02:06:23;98325.81;;;17.43;67.97
32456;BME280;18912;43.270;27.942;2022-10-26T02:09:22;98332.91;;;17.44;67.98
32456;BME280;18912;43.270;27.942;2022-10-26T02:11:48;98328.66;;;17.48;67.97
32456;BME280;18912;43.270;27.942;2022-10-26T02:16:57;98328.28;;;17.44;68.22
32456;BME280;18912;43.270;27.942;2022-10-26T02:20:12;98334.00;;;17.43;68.36
32456;BME280;18912;43.270;27.942;2022-10-26T02:24:46;98331.91;;;17.33;68.52
32456;BME280;18912;43.270;27.942;2022-10-26T02:27:21;98334.72;;;17.38;68.89
32456;BME280;18912;43.270;27.942;2022-10-26T02:29:50;98343.81;;;17.27;69.02
32456;BME280;18912;43.270;27.942;2022-10-26T02:32:18;98335.53;;;17.22;69.07
32456;BME280;18912;43.270;27.942;2022-10-26T02:34:48;98350.59;;;17.25;69.44
32456;BME280;18912;43.270;27.942;2022-10-26T02:37:17;98346.47;;;17.22;69.76
32456;BME280;18912;43.270;27.942;2022-10-26T02:39:46;98343.59;;;17.17;69.82
32456;BME280;18912;43.270;27.942;2022-10-26T02:42:14;98351.59;;;17.19;69.73
32456;BME280;18912;43.270;27.942;2022-10-26T02:44:47;98355.75;;;17.10;70.17
32456;BME280;18912;43.270;27.942;2022-10-26T02:47:15;98359.47;;;17.04;70.30
32456;BME280;18912;43.270;27.942;2022-10-26T02:49:41;98357.59;;;16.93;71.16
32456;BME280;18912;43.270;27.942;2022-10-26T02:57:33;98365.44;;;16.89;71.41
32456;BME280;18912;43.270;27.942;2022-10-26T03:00:14;98364.16;;;16.80;72.02
32456;BME280;18912;43.270;27.942;2022-10-26T03:02:45;98359.31;;;16.70;72.64
32456;BME280;18912;43.270;27.942;2022-10-26T03:05:19;98362.63;;;16.72;72.92
32456;BME280;18912;43.270;27.942;2022-10-26T03:07:47;98356.72;;;16.64;74.22
32456;BME280;18912;43.270;27.942;2022-10-26T03:10:12;98371.19;;;16.64;74.35
32456;BME280;18912;43.270;27.942;2022-10-26T03:12:38;98361.44;;;16.68;74.24
32456;BME280;18912;43.270;27.942;2022-10-26T03:15:04;98374.38;;;16.73;74.55
32456;BME280;18912;43.270;27.942;2022-10-26T03:17:30;98368.19;;;16.77;74.71
32456;BME280;18912;43.270;27.942;2022-10-26T03:19:55;98369.03;;;16.78;74.85
32456;BME280;18912;43.270;27.942;2022-10-26T03:22:21;98368.19;;;16.77;74.90
32456;BME280;18912;43.270;27.942;2022-10-26T03:24:47;98370.91;;;16.77;75.15
32456;BME280;18912;43.270;27.942;2022-10-26T03:27:13;98371.16;;;16.76;75.58
32456;BME280;18912;43.270;27.942;2022-10-26T03:29:39;98375.69;;;16.70;75.54
32456;BME280;18912;43.270;27.942;2022-10-26T03:32:04;98379.00;;;16.72;75.59
32456;BME280;18912;43.270;27.942;2022-10-26T03:34:30;98377.47;;;16.65;75.62
32456;BME280;18912;43.270;27.942;2022-10-26T03:36:55;98373.66;;;16.66;75.73
32456;BME280;18912;43.270;27.942;2022-10-26T03:39:21;98378.78;;;16.62;75.71
32456;BME280;18912;43.270;27.942;2022-10-26T03:41:46;98387.56;;;16.64;75.66
32456;BME280;18912;43.270;27.942;2022-10-26T03:44:12;98385.19;;;16.56;75.87
32456;BME280;18912;43.270;27.942;2022-10-26T03:46:38;98383.19;;;16.52;75.99
32456;BME280;18912;43.270;27.942;2022-10-26T03:49:04;98391.25;;;16.47;76.11
32456;BME280;18912;43.270;27.942;2022-10-26T03:51:30;98389.31;;;16.36;76.33
32456;BME280;18912;43.270;27.942;2022-10-26T03:53:55;98391.25;;;16.35;76.50
32456;BME280;18912;43.270;27.942;2022-10-26T03:56:21;98388.72;;;16.34;76.68
32456;BME280;18912;43.270;27.942;2022-10-26T03:58:46;98392.78;;;16.31;76.96
32456;BME280;18912;43.270;27.942;2022-10-26T04:01:12;98392.78;;;16.31;77.56
32456;BME280;18912;43.270;27.942;2022-10-26T04:03:37;98402.00;;;16.30;77.39
32456;BME280;18912;43.270;27.942;2022-10-26T04:06:03;98398.09;;;16.26;77.58
32456;BME280;18912;43.270;27.942;2022-10-26T04:08:29;98399.63;;;16.22;77.29
32456;BME280;18912;43.270;27.942;2022-10-26T04:10:54;98410.19;;;16.19;77.53
32456;BME280;18912;43.270;27.942;2022-10-26T04:13:20;98416.00;;;16.22;77.07
32456;BME280;18912;43.270;27.942;2022-10-26T04:15:45;98416.59;;;16.13;77.24
32456;BME280;18912;43.270;27.942;2022-10-26T04:18:11;98425.38;;;16.03;77.67
32456;BME280;18912;43.270;27.942;2022-10-26T04:20:37;98423.94;;;16.01;77.79
32456;BME280;18912;43.270;27.942;2022-10-26T04:23:07;98424.38;;;15.98;78.43
32456;BME280;18912;43.270;27.942;2022-10-26T04:25:34;98421.53;;;15.93;78.74
32456;BME280;18912;43.270;27.942;2022-10-26T04:28:00;98427.69;;;15.88;79.91
32456;BME280;18912;43.270;27.942;2022-10-26T04:30:26;98425.09;;;15.93;79.83
32456;BME280;18912;43.270;27.942;2022-10-26T04:32:52;98438.25;;;15.96;79.97
32456;BME280;18912;43.270;27.942;2022-10-26T04:35:17;98442.06;;;15.95;80.15
32456;BME280;18912;43.270;27.942;2022-10-26T04:37:43;98446.56;;;15.89;81.54
32456;BME280;18912;43.270;27.942;2022-10-26T04:40:09;98451.16;;;15.89;81.87
32456;BME280;18912;43.270;27.942;2022-10-26T04:42:45;98455.09;;;15.93;81.62
32456;BME280;18912;43.270;27.942;2022-10-26T04:45:13;98448.56;;;15.94;81.51
32456;BME280;18912;43.270;27.942;2022-10-26T04:47:39;98456.28;;;15.97;81.07
32456;BME280;18912;43.270;27.942;2022-10-26T04:50:05;98461.38;;;15.94;80.97
32456;BME280;18912;43.270;27.942;2022-10-26T04:52:31;98454.59;;;15.96;80.66
32456;BME280;18912;43.270;27.942;2022-10-26T04:54:57;98451.75;;;15.91;80.66
32456;BME280;18912;43.270;27.942;2022-10-26T04:57:22;98465.28;;;15.98;80.67
32456;BME280;18912;43.270;27.942;2022-10-26T04:59:47;98460.41;;;16.00;80.97
32456;BME280;18912;43.270;27.942;2022-10-26T05:02:13;98464.94;;;16.06;81.30
32456;BME280;18912;43.270;27.942;2022-10-26T05:04:38;98469.47;;;16.12;81.35
32456;BME280;18912;43.270;27.942;2022-10-26T05:07:04;98471.28;;;16.18;81.61
32456;BME280;18912;43.270;27.942;2022-10-26T05:09:29;98478.63;;;16.29;81.34
32456;BME280;18912;43.270;27.942;2022-10-26T05:11:55;98482.44;;;16.39;81.05
32456;BME280;18912;43.270;27.942;2022-10-26T05:14:20;98492.59;;;16.50;80.59
32456;BME280;18912;43.270;27.942;2022-10-26T05:16:46;98489.16;;;16.66;80.08
32456;BME280;18912;43.270;27.942;2022-10-26T05:19:11;98486.75;;;16.70;79.59
32456;BME280;18912;43.270;27.942;2022-10-26T05:21:37;98495.31;;;16.85;78.89
32456;BME280;18912;43.270;27.942;2022-10-26T05:24:02;98492.47;;;16.92;78.23
32456;BME280;18912;43.270;27.942;2022-10-26T05:26:28;98496.38;;;16.96;77.61
32456;BME280;18912;43.270;27.942;2022-10-26T05:28:53;98496.75;;;16.99;77.61
32456;BME280;18912;43.270;27.942;2022-10-26T05:31:19;98498.03;;;17.08;76.90
32456;BME280;18912;43.270;27.942;2022-10-26T05:33:51;98499.56;;;17.16;76.24
32456;BME280;18912;43.270;27.942;2022-10-26T05:36:17;98500.84;;;17.25;75.98
32456;BME280;18912;43.270;27.942;2022-10-26T05:38:43;98510.22;;;17.29;75.22
32456;BME280;18912;43.270;27.942;2022-10-26T05:41:08;98500.13;;;17.29;75.04
32456;BME280;18912;43.270;27.942;2022-10-26T05:43:34;98510.09;;;17.35;74.71
32456;BME280;18912;43.270;27.942;2022-10-26T05:45:59;98518.75;;;17.44;74.07
32456;BME280;18912;43.270;27.942;2022-10-26T05:48:25;98521.72;;;17.42;74.00
32456;BME280;18912;43.270;27.942;2022-10-26T05:50:50;98525.22;;;17.49;73.69
32456;BME280;18912;43.270;27.942;2022-10-26T05:53:16;98523.88;;;17.52;73.43
32456;BME280;18912;43.270;27.942;2022-10-26T05:55:42;98534.44;;;17.60;73.36
32456;BME280;18912;43.270;27.942;2022-10-26T05:58:12;98519.81;;;17.66;73.14
32456;BME280;18912;43.270;27.942;2022-10-26T06:06:14;98545.59;;;17.98;71.98
32456;BME280;18912;43.270;27.942;2022-10-26T06:08:40;98540.75;;;18.17;71.35
32456;BME280;18912;43.270;27.942;2022-10-26T06:11:07;98544.50;;;18.72;70.11
32456;BME280;18912;43.270;27.942;2022-10-26T06:13:33;98547.59;;;19.69;66.63
32456;BME280;18912;43.270;27.942;2022-10-26T06:32:09;98555.13;;;26.22;43.38
32456;BME280;18912;43.270;27.942;2022-10-26T06:34:38;98553.66;;;25.30;44.93
32456;BME280;18912;43.270;27.942;2022-10-26T06:37:10;98559.41;;;24.66;45.51
32456;BME280;18912;43.270;27.942;2022-10-26T06:39:41;98560.66;;;24.45;46.87
32456;BME280;18912;43.270;27.942;2022-10-26T06:42:09;98562.34;;;25.18;45.20
32456;BME280;18912;43.270;27.942;2022-10-26T06:44:35;98559.06;;;26.95;41.94
32456;BME280;18912;43.270;27.942;2022-10-26T06:47:25;98577.06;;;29.37;37.69
32456;BME280;18912;43.270;27.942;2022-10-26T06:52:31;98583.28;;;33.38;30.90
32456;BME280;18912;43.270;27.942;2022-10-26T06:54:58;98580.38;;;35.24;28.40
32456;BME280;18912;43.270;27.942;2022-10-26T06:57:27;98581.94;;;35.37;27.58
32456;BME280;18912;43.270;27.942;2022-10-26T06:59:58;98588.34;;;33.44;29.68
32456;BME280;18912;43.270;27.942;2022-10-26T07:02:27;98578.50;;;31.00;32.65
32456;BME280;18912;43.270;27.942;2022-10-26T07:04:53;98587.56;;;30.32;33.95
32456;BME280;18912;43.270;27.942;2022-10-26T07:07:26;98589.63;;;32.93;30.51
32456;BME280;18912;43.270;27.942;2022-10-26T07:09:53;98590.56;;;34.52;27.94
32456;BME280;18912;43.270;27.942;2022-10-26T07:12:18;98595.13;;;35.76;26.57
32456;BME280;18912;43.270;27.942;2022-10-26T07:14:44;98593.34;;;36.62;25.34
32456;BME280;18912;43.270;27.942;2022-10-26T07:17:09;98596.28;;;37.19;24.29
32456;BME280;18912;43.270;27.942;2022-10-26T07:19:35;98598.78;;;37.05;24.89
32456;BME280;18912;43.270;27.942;2022-10-26T07:22:01;98602.59;;;36.15;25.47
32456;BME280;18912;43.270;27.942;2022-10-26T07:24:27;98596.22;;;35.32;26.07
32456;BME280;18912;43.270;27.942;2022-10-26T07:26:53;98597.38;;;34.51;27.03
32456;BME280;18912;43.270;27.942;2022-10-26T07:29:20;98598.13;;;34.04;27.80
32456;BME280;18912;43.270;27.942;2022-10-26T07:31:46;98610.16;;;33.59;28.39
32456;BME280;18912;43.270;27.942;2022-10-26T07:34:12;98597.28;;;33.26;28.90
32456;BME280;18912;43.270;27.942;2022-10-26T07:36:37;98599.00;;;33.18;28.75
32456;BME280;18912;43.270;27.942;2022-10-26T07:39:04;98603.03;;;33.09;29.21
32456;BME280;18912;43.270;27.942;2022-10-26T07:41:30;98603.97;;;33.13;28.89
32456;BME280;18912;43.270;27.942;2022-10-26T07:43:55;98591.56;;;33.01;28.81
32456;BME280;18912;43.270;27.942;2022-10-26T07:46:21;98594.78;;;32.83;29.59
32456;BME280;18912;43.270;27.942;2022-10-26T07:48:46;98602.09;;;32.75;29.19
32456;BME280;18912;43.270;27.942;2022-10-26T07:51:12;98598.47;;;32.16;29.88
32456;BME280;18912;43.270;27.942;2022-10-26T07:53:37;98592.47;;;31.89;30.86
32456;BME280;18912;43.270;27.942;2022-10-26T07:56:03;98599.53;;;32.33;29.93
32456;BME280;18912;43.270;27.942;2022-10-26T07:58:29;98603.53;;;32.81;29.29
32456;BME280;18912;43.270;27.942;2022-10-26T08:00:54;98597.00;;;32.98;29.31
32456;BME280;18912;43.270;27.942;2022-10-26T08:03:20;98602.06;;;33.04;29.25
32456;BME280;18912;43.270;27.942;2022-10-26T08:05:46;98605.75;;;33.17;28.87
32456;BME280;18912;43.270;27.942;2022-10-26T08:08:16;98616.25;;;32.41;29.83
32456;BME280;18912;43.270;27.942;2022-10-26T08:10:45;98610.63;;;31.66;31.19
32456;BME280;18912;43.270;27.942;2022-10-26T08:13:11;98611.97;;;31.43;30.85
32456;BME280;18912;43.270;27.942;2022-10-26T08:15:38;98617.22;;;31.53;30.97
32456;BME280;18912;43.270;27.942;2022-10-26T08:18:04;98616.56;;;31.30;31.06
32456;BME280;18912;43.270;27.942;2022-10-26T08:20:31;98616.75;;;30.82;32.08
32456;BME280;18912;43.270;27.942;2022-10-26T08:22:57;98626.09;;;30.30;32.48
32456;BME280;18912;43.270;27.942;2022-10-26T08:25:23;98629.69;;;29.91;32.84
32456;BME280;18912;43.270;27.942;2022-10-26T08:27:48;98622.97;;;29.17;33.65
32456;BME280;18912;43.270;27.942;2022-10-26T08:30:14;98625.25;;;28.66;34.96
32456;BME280;18912;43.270;27.942;2022-10-26T08:32:40;98616.25;;;27.88;36.02
32456;BME280;18912;43.270;27.942;2022-10-26T08:35:06;98628.47;;;28.05;36.26
32456;BME280;18912;43.270;27.942;2022-10-26T08:37:32;98625.59;;;28.87;35.25
32456;BME280;18912;43.270;27.942;2022-10-26T08:39:57;98629.50;;;29.66;34.08
32456;BME280;18912;43.270;27.942;2022-10-26T08:42:35;98630.19;;;29.40;34.53
32456;BME280;18912;43.270;27.942;2022-10-26T08:45:11;98624.75;;;29.00;34.64
32456;BME280;18912;43.270;27.942;2022-10-26T08:47:42;98624.34;;;28.57;35.33
32456;BME280;18912;43.270;27.942;2022-10-26T08:50:24;98637.53;;;28.11;35.83
32456;BME280;18912;43.270;27.942;2022-10-26T08:53:02;98633.44;;;27.76;36.73
32456;BME280;18912;43.270;27.942;2022-10-26T08:55:46;98635.06;;;27.63;36.34
32456;BME280;18912;43.270;27.942;2022-10-26T08:58:16;98642.16;;;27.37;37.05
32456;BME280;18912;43.270;27.942;2022-10-26T09:00:46;98639.00;;;27.44;37.25
32456;BME280;18912;43.270;27.942;2022-10-26T09:03:14;98639.44;;;27.51;37.29
32456;BME280;18912;43.270;27.942;2022-10-26T09:20:12;98642.47;;;28.68;35.74
32456;BME280;18912;43.270;27.942;2022-10-26T09:25:21;98643.19;;;28.60;35.97
32456;BME280;18912;43.270;27.942;2022-10-26T09:27:59;98639.03;;;29.07;35.26
32456;BME280;18912;43.270;27.942;2022-10-26T09:30:26;98642.63;;;28.85;35.10
32456;BME280;18912;43.270;27.942;2022-10-26T09:32:57;98643.66;;;29.47;34.36
32456;BME280;18912;43.270;27.942;2022-10-26T09:37:55;98630.59;;;30.48;33.42
32456;BME280;18912;43.270;27.942;2022-10-26T09:40:39;98641.03;;;30.34;33.40
32456;BME280;18912;43.270;27.942;2022-10-26T09:43:32;98645.50;;;30.04;33.50
32456;BME280;18912;43.270;27.942;2022-10-26T09:46:02;98645.06;;;29.89;32.83
32456;BME280;18912;43.270;27.942;2022-10-26T09:50:57;98642.69;;;29.29;32.66
32456;BME280;18912;43.270;27.942;2022-10-26T09:53:25;98641.69;;;28.76;33.71
32456;BME280;18912;43.270;27.942;2022-10-26T09:56:00;98636.16;;;28.49;33.79
32456;BME280;18912;43.270;27.942;2022-10-26T09:58:29;98636.91;;;28.54;34.25
32456;BME280;18912;43.270;27.942;2022-10-26T10:00:56;98643.00;;;27.84;35.49
32456;BME280;18912;43.270;27.942;2022-10-26T10:03:31;98641.13;;;28.11;35.16
32456;BME280;18912;43.270;27.942;2022-10-26T10:06:20;98641.72;;;28.08;35.06
32456;BME280;18912;43.270;27.942;2022-10-26T10:09:13;98644.41;;;29.03;34.33
32456;BME280;18912;43.270;27.942;2022-10-26T10:11:45;98646.88;;;29.63;33.33
32456;BME280;18912;43.270;27.942;2022-10-26T10:14:20;98644.09;;;30.24;32.68
32456;BME280;18912;43.270;27.942;2022-10-26T10:17:03;98640.47;;;30.54;31.89
32456;BME280;18912;43.270;27.942;2022-10-26T10:19:31;98643.47;;;30.83;31.29
32456;BME280;18912;43.270;27.942;2022-10-26T10:21:58;98639.59;;;31.53;30.11
32456;BME280;18912;43.270;27.942;2022-10-26T10:27:02;98633.41;;;32.02;29.50
32456;BME280;18912;43.270;27.942;2022-10-26T10:29:39;98640.47;;;32.08;29.79
32456;BME280;18912;43.270;27.942;2022-10-26T10:34:41;98634.81;;;30.93;30.76
32456;BME280;18912;43.270;27.942;2022-10-26T10:37:22;98634.13;;;30.88;30.89
32456;BME280;18912;43.270;27.942;2022-10-26T10:39:49;98632.50;;;30.87;30.99
32456;BME280;18912;43.270;27.942;2022-10-26T10:42:21;98634.34;;;30.44;31.40
32456;BME280;18912;43.270;27.942;2022-10-26T10:44:51;98629.47;;;30.58;31.26
32456;BME280;18912;43.270;27.942;2022-10-26T10:47:31;98628.81;;;30.52;31.44
32456;BME280;18912;43.270;27.942;2022-10-26T10:52:28;98634.81;;;31.10;30.63
32456;BME280;18912;43.270;27.942;2022-10-26T10:55:20;98634.63;;;31.15;29.84
32456;BME280;18912;43.270;27.942;2022-10-26T10:58:00;98627.63;;;30.53;30.25
32456;BME280;18912;43.270;27.942;2022-10-26T11:00:35;98630.09;;;30.07;30.87
32456;BME280;18912;43.270;27.942;2022-10-26T11:03:08;98631.88;;;29.50;31.41
32456;BME280;18912;43.270;27.942;2022-10-26T11:11:23;98623.59;;;29.36;32.16
32456;BME280;18912;43.270;27.942;2022-10-26T11:17:03;98610.88;;;28.86;32.52
32456;BME280;18912;43.270;27.942;2022-10-26T11:19:41;98614.66;;;28.41;33.13
32456;BME280;18912;43.270;27.942;2022-10-26T11:22:15;98617.03;;;28.07;34.14
32456;BME280;18912;43.270;27.942;2022-10-26T11:24:58;98619.72;;;27.52;34.79
32456;BME280;18912;43.270;27.942;2022-10-26T11:27:38;98621.31;;;27.40;35.24
32456;BME280;18912;43.270;27.942;2022-10-26T11:30:23;98622.50;;;27.34;35.35
32456;BME280;18912;43.270;27.942;2022-10-26T11:35:30;98618.38;;;27.13;35.75
32456;BME280;18912;43.270;27.942;2022-10-26T11:38:03;98624.88;;;26.90;36.08
32456;BME280;18912;43.270;27.942;2022-10-26T11:43:17;98632.78;;;26.59;36.61
32456;BME280;18912;43.270;27.942;2022-10-26T11:45:58;98629.69;;;26.42;36.54
32456;BME280;18912;43.270;27.942;2022-10-26T11:48:34;98624.91;;;26.47;36.60
32456;BME280;18912;43.270;27.942;2022-10-26T11:51:02;98622.56;;;26.54;36.49
32456;BME280;18912;43.270;27.942;2022-10-26T11:53:38;98606.13;;;26.63;36.17
32456;BME280;18912;43.270;27.942;2022-10-26T11:56:24;98620.19;;;26.66;36.61
32456;BME280;18912;43.270;27.942;2022-10-26T11:58:55;98609.06;;;26.71;36.40
32456;BME280;18912;43.270;27.942;2022-10-26T12:01:21;98618.81;;;26.88;36.07
32456;BME280;18912;43.270;27.942;2022-10-26T12:03:50;98618.13;;;27.14;34.89
32456;BME280;18912;43.270;27.942;2022-10-26T12:06:24;98627.81;;;27.30;34.23
32456;BME280;18912;43.270;27.942;2022-10-26T12:09:10;98626.97;;;27.16;34.18
32456;BME280;18912;43.270;27.942;2022-10-26T12:11:45;98619.47;;;26.98;34.42
32456;BME280;18912;43.270;27.942;2022-10-26T12:14:35;98615.50;;;27.04;34.05
32456;BME280;18912;43.270;27.942;2022-10-26T12:17:14;98624.50;;;26.96;34.31
32456;BME280;18912;43.270;27.942;2022-10-26T12:19:46;98625.09;;;26.93;34.13
32456;BME280;18912;43.270;27.942;2022-10-26T12:22:18;98629.91;;;26.88;34.26
32456;BME280;18912;43.270;27.942;2022-10-26T12:25:04;98633.13;;;26.76;34.97
32456;BME280;18912;43.270;27.942;2022-10-26T12:37:55;98630.88;;;26.12;35.78
32456;BME280;18912;43.270;27.942;2022-10-26T12:45:39;98642.09;;;25.73;34.52
32456;BME280;18912;43.270;27.942;2022-10-26T12:48:19;98646.09;;;25.62;34.65
32456;BME280;18912;43.270;27.942;2022-10-26T12:50:45;98645.75;;;25.35;34.83
32456;BME280;18912;43.270;27.942;2022-10-26T12:53:13;98646.59;;;25.31;35.38
32456;BME280;18912;43.270;27.942;2022-10-26T12:58:21;98640.44;;;25.05;35.17
32456;BME280;18912;43.270;27.942;2022-10-26T13:03:34;98646.00;;;25.00;36.42
32456;BME280;18912;43.270;27.942;2022-10-26T13:09:39;98659.22;;;25.08;36.24
32456;BME280;18912;43.270;27.942;2022-10-26T13:12:08;98655.38;;;25.04;35.53
32456;BME280;18912;43.270;27.942;2022-10-26T13:14:40;98656.13;;;24.76;36.17
32456;BME280;18912;43.270;27.942;2022-10-26T13:17:31;98655.59;;;24.64;36.38
32456;BME280;18912;43.270;27.942;2022-10-26T13:20:00;98663.03;;;24.78;36.30
32456;BME280;18912;43.270;27.942;2022-10-26T13:22:25;98658.59;;;24.82;36.62
32456;BME280;18912;43.270;27.942;2022-10-26T13:24:53;98662.19;;;24.78;36.47
32456;BME280;18912;43.270;27.942;2022-10-26T13:27:23;98660.56;;;24.77;36.39
32456;BME280;18912;43.270;27.942;2022-10-26T13:32:34;98676.66;;;24.60;36.47
32456;BME280;18912;43.270;27.942;2022-10-26T13:35:01;98677.22;;;24.57;39.35
32456;BME280;18912;43.270;27.942;2022-10-26T13:37:48;98682.66;;;23.93;44.46
32456;BME280;18912;43.270;27.942;2022-10-26T13:40:23;98666.72;;;23.40;46.12
32456;BME280;18912;43.270;27.942;2022-10-26T13:42:53;98683.94;;;22.65;49.49
32456;BME280;18912;43.270;27.942;2022-10-26T13:45:53;98685.53;;;22.56;49.52
32456;BME280;18912;43.270;27.942;2022-10-26T13:48:40;98685.56;;;21.94;52.74
32456;BME280;18912;43.270;27.942;2022-10-26T13:51:19;98683.94;;;21.66;54.79
32456;BME280;18912;43.270;27.942;2022-10-26T13:53:50;98686.47;;;21.36;55.98
32456;BME280;18912;43.270;27.942;2022-10-26T13:59:05;98698.63;;;20.87;62.17
32456;BME280;18912;43.270;27.942;2022-10-26T14:01:33;98695.41;;;20.95;62.71
32456;BME280;18912;43.270;27.942;2022-10-26T14:04:16;98688.72;;;20.86;63.30
32456;BME280;18912;43.270;27.942;2022-10-26T14:06:50;98701.97;;;20.67;64.36
32456;BME280;18912;43.270;27.942;2022-10-26T14:09:16;98701.22;;;20.50;65.15
32456;BME280;18912;43.270;27.942;2022-10-26T14:14:21;98698.38;;;20.18;69.40
32456;BME280;18912;43.270;27.942;2022-10-26T14:16:49;98705.16;;;19.94;71.27
32456;BME280;18912;43.270;27.942;2022-10-26T14:19:21;98705.94;;;19.73;73.07
32456;BME280;18912;43.270;27.942;2022-10-26T14:21:49;98702.34;;;19.73;73.95
32456;BME280;18912;43.270;27.942;2022-10-26T14:24:48;98710.41;;;19.79;73.25
32456;BME280;18912;43.270;27.942;2022-10-26T14:27:19;98701.47;;;19.50;75.09
32456;BME280;18912;43.270;27.942;2022-10-26T14:29:45;98690.00;;;19.37;75.65
32456;BME280;18912;43.270;27.942;2022-10-26T14:32:28;98708.66;;;19.23;76.41
32456;BME280;18912;43.270;27.942;2022-10-26T14:34:54;98709.81;;;19.11;77.51
32456;BME280;18912;43.270;27.942;2022-10-26T14:39:59;98707.06;;;19.11;78.12
32456;BME280;18912;43.270;27.942;2022-10-26T14:42:31;98712.31;;;19.12;78.81
32456;BME280;18912;43.270;27.942;2022-10-26T14:44:59;98702.50;;;19.16;78.78
32456;BME280;18912;43.270;27.942;2022-10-26T14:47:27;98719.03;;;19.05;80.60
32456;BME280;18912;43.270;27.942;2022-10-26T14:49:54;98718.50;;;18.91;81.99
32456;BME280;18912;43.270;27.942;2022-10-26T14:52:29;98723.72;;;18.93;82.41
32456;BME280;18912;43.270;27.942;2022-10-26T14:54:58;98718.44;;;19.03;81.47
32456;BME280;18912;43.270;27.942;2022-10-26T14:57:35;98718.75;;;18.90;81.79
32456;BME280;18912;43.270;27.942;2022-10-26T15:02:43;98734.19;;;18.67;83.71
32456;BME280;18912;43.270;27.942;2022-10-26T15:05:20;98734.69;;;18.64;83.50
32456;BME280;18912;43.270;27.942;2022-10-26T15:07:50;98733.19;;;18.45;84.97
32456;BME280;18912;43.270;27.942;2022-10-26T15:10:44;98732.25;;;18.51;84.48
32456;BME280;18912;43.270;27.942;2022-10-26T15:13:30;98734.28;;;18.44;84.56
32456;BME280;18912;43.270;27.942;2022-10-26T15:19:06;98752.19;;;18.01;87.41
32456;BME280;18912;43.270;27.942;2022-10-26T15:21:35;98760.59;;;17.76;88.68
32456;BME280;18912;43.270;27.942;2022-10-26T15:24:03;98755.38;;;17.63;90.31
32456;BME280;18912;43.270;27.942;2022-10-26T15:26:41;98760.25;;;17.72;89.63
32456;BME280;18912;43.270;27.942;2022-10-26T15:29:37;98762.78;;;17.74;89.96
32456;BME280;18912;43.270;27.942;2022-10-26T15:32:24;98766.56;;;17.73;90.50